Time;durP1;ratioP1;P1;durP2;ratioP2;P2;SDS_P1;SDS_P2;PMS_P1;PMS_P2;Temp;Humidity;BMP_temperature;BMP_pressure;BME280_temperature;BME280_humidity;BME280_pressure;Samples;Min_cycle;Max_cycle;Signal;HPM_P1;HPM_P2
2023/04/06 00:01:11;;;;;;;6.53;5.73;;;;;;;;;;5022306;28;20204;-73
2023/04/06 00:03:39;;;;;;;7.40;5.80;;;;;;;;;;5018641;28;20236;-73
2023/04/06 00:06:06;;;;;;;6.73;5.87;;;;;;;;;;5024684;28;20239;-73
2023/04/06 00:08:33;;;;;;;7.37;6.23;;;;;;;;;;5021570;28;20301;-73
2023/04/06 00:11:02;;;;;;;7.13;5.50;;;;;;;;;;5020376;28;20273;-73
2023/04/06 00:13:29;;;;;;;8.97;6.20;;;;;;;;;;5020131;28;20236;-73
2023/04/06 00:15:56;;;;;;;7.77;6.13;;;;;;;;;;5012840;28;20213;-73
2023/04/06 00:18:24;;;;;;;7.17;6.20;;;;;;;;;;5022263;28;20234;-73
2023/04/06 00:20:51;;;;;;;8.30;6.60;;;;;;;;;;5021080;28;20212;-74
2023/04/06 00:23:18;;;;;;;6.40;5.77;;;;;;;;;;5020112;28;20255;-73
2023/04/06 00:25:45;;;;;;;7.87;6.40;;;;;;;;;;5023232;28;20272;-73
2023/04/06 00:28:14;;;;;;;7.43;6.43;;;;;;;;;;5015347;28;20268;-73
2023/04/06 00:30:42;;;;;;;8.37;7.00;;;;;;;;;;5017938;28;20255;-73
2023/04/06 00:33:09;;;;;;;7.87;6.33;;;;;;;;;;5017755;28;20270;-73
2023/04/06 00:35:36;;;;;;;9.47;7.23;;;;;;;;;;5026983;28;20295;-73
2023/04/06 00:38:04;;;;;;;9.63;7.00;;;;;;;;;;5021875;28;20247;-73
2023/04/06 00:40:32;;;;;;;9.63;6.93;;;;;;;;;;5017564;28;20204;-73
2023/04/06 00:42:59;;;;;;;7.10;6.27;;;;;;;;;;5022168;28;20204;-73
2023/04/06 00:45:28;;;;;;;9.03;6.23;;;;;;;;;;5024655;28;20287;-74
2023/04/06 00:47:55;;;;;;;8.67;6.97;;;;;;;;;;5021658;28;20283;-73
2023/04/06 00:50:23;;;;;;;10.57;6.73;;;;;;;;;;5021115;28;20208;-73
2023/04/06 00:52:50;;;;;;;8.03;6.40;;;;;;;;;;5017364;28;20256;-73
2023/04/06 00:55:17;;;;;;;9.93;7.43;;;;;;;;;;5020541;28;20250;-73
2023/04/06 00:57:44;;;;;;;8.60;7.20;;;;;;;;;;5015981;28;20275;-73
2023/04/06 01:00:13;;;;;;;8.13;6.87;;;;;;;;;;5021649;28;20251;-73
2023/04/06 01:02:41;;;;;;;10.33;7.00;;;;;;;;;;5020937;28;20227;-74
2023/04/06 01:05:09;;;;;;;7.40;6.57;;;;;;;;;;5014612;28;20251;-73
2023/04/06 01:07:36;;;;;;;8.80;6.47;;;;;;;;;;5013098;28;20236;-73
2023/04/06 01:10:03;;;;;;;9.33;6.93;;;;;;;;;;5024856;28;20268;-73
2023/04/06 01:12:30;;;;;;;7.23;6.30;;;;;;;;;;5020280;28;20311;-73
2023/04/06 01:14:58;;;;;;;7.80;6.50;;;;;;;;;;5019160;28;20255;-73
2023/04/06 01:17:25;;;;;;;9.37;6.70;;;;;;;;;;5016726;28;20267;-73
2023/04/06 01:19:54;;;;;;;7.43;6.37;;;;;;;;;;5018966;28;20216;-74
2023/04/06 01:22:23;;;;;;;8.80;6.93;;;;;;;;;;5019699;28;20197;-73
2023/04/06 01:24:50;;;;;;;8.40;6.67;;;;;;;;;;5015198;28;20249;-73
2023/04/06 01:27:17;;;;;;;9.60;7.17;;;;;;;;;;5019484;28;20272;-73
2023/04/06 01:29:45;;;;;;;10.20;7.20;;;;;;;;;;5015509;28;20259;-73
2023/04/06 01:32:12;;;;;;;10.03;7.10;;;;;;;;;;5022299;28;20314;-73
2023/04/06 01:34:39;;;;;;;10.07;6.90;;;;;;;;;;5021483;28;20254;-73
2023/04/06 01:37:06;;;;;;;8.47;6.43;;;;;;;;;;5015331;28;20296;-73
2023/04/06 01:39:35;;;;;;;9.07;6.90;;;;;;;;;;5014125;28;20236;-73
2023/04/06 01:42:02;;;;;;;8.83;6.80;;;;;;;;;;5013704;28;20236;-73
2023/04/06 01:44:30;;;;;;;10.57;6.50;;;;;;;;;;5024548;28;20243;-73
2023/04/06 01:46:57;;;;;;;8.53;6.90;;;;;;;;;;5023311;28;20209;-73
2023/04/06 01:49:24;;;;;;;9.37;7.30;;;;;;;;;;5018981;28;20223;-73
2023/04/06 01:51:52;;;;;;;8.17;6.43;;;;;;;;;;5021031;28;20235;-73
2023/04/06 01:54:19;;;;;;;9.23;6.77;;;;;;;;;;5022992;28;20208;-73
2023/04/06 01:56:50;;;;;;;9.10;6.67;;;;;;;;;;5023242;28;20299;-73
2023/04/06 01:59:17;;;;;;;9.27;7.10;;;;;;;;;;5019053;28;20213;-73
2023/04/06 02:01:45;;;;;;;8.47;6.23;;;;;;;;;;5016254;28;20352;-73
2023/04/06 02:04:13;;;;;;;12.77;6.40;;;;;;;;;;5018626;28;20251;-73
2023/04/06 02:06:40;;;;;;;6.80;6.10;;;;;;;;;;5017770;28;20217;-73
2023/04/06 02:09:07;;;;;;;6.70;6.00;;;;;;;;;;5019264;28;20250;-73
2023/04/06 02:11:35;;;;;;;7.77;6.23;;;;;;;;;;5018700;28;20249;-73
2023/04/06 02:14:03;;;;;;;8.17;6.37;;;;;;;;;;5020011;28;20200;-73
2023/04/06 02:16:31;;;;;;;6.40;5.80;;;;;;;;;;5017219;28;20216;-73
2023/04/06 02:18:58;;;;;;;8.13;5.80;;;;;;;;;;5023543;28;20216;-73
2023/04/06 02:21:25;;;;;;;7.73;5.87;;;;;;;;;;5023826;28;20237;-73
2023/04/06 02:23:52;;;;;;;7.70;5.57;;;;;;;;;;5023224;28;20228;-73
2023/04/06 02:26:19;;;;;;;8.00;6.50;;;;;;;;;;5024802;28;20220;-73
2023/04/06 02:28:47;;;;;;;7.03;6.13;;;;;;;;;;5022613;28;20240;-73
2023/04/06 02:31:15;;;;;;;7.97;6.50;;;;;;;;;;5020921;28;20236;-73
2023/04/06 02:33:43;;;;;;;7.90;6.77;;;;;;;;;;5019850;28;20237;-73
2023/04/06 02:36:10;;;;;;;8.10;6.43;;;;;;;;;;5021330;28;20231;-73
2023/04/06 02:38:37;;;;;;;6.63;5.90;;;;;;;;;;5022552;28;20239;-73
2023/04/06 02:41:04;;;;;;;7.50;6.20;;;;;;;;;;5021389;28;20323;-73
2023/04/06 02:43:32;;;;;;;9.10;6.90;;;;;;;;;;5018833;28;20288;-73
2023/04/06 02:45:59;;;;;;;7.50;6.10;;;;;;;;;;5023613;28;20236;-73
2023/04/06 02:48:28;;;;;;;8.53;6.23;;;;;;;;;;5020765;28;20212;-73
2023/04/06 02:50:55;;;;;;;9.17;6.10;;;;;;;;;;5016522;28;20240;-73
2023/04/06 02:53:22;;;;;;;6.93;5.87;;;;;;;;;;5022924;28;20282;-73
2023/04/06 02:55:49;;;;;;;7.43;6.27;;;;;;;;;;5023900;28;20225;-73
2023/04/06 02:58:17;;;;;;;8.43;6.10;;;;;;;;;;5018218;28;20244;-74
2023/04/06 03:00:44;;;;;;;6.50;5.63;;;;;;;;;;5027723;28;20240;-73
2023/04/06 03:03:11;;;;;;;8.50;6.63;;;;;;;;;;5024451;28;20254;-74
2023/04/06 03:05:40;;;;;;;8.23;6.43;;;;;;;;;;5026092;28;20212;-73
2023/04/06 03:08:07;;;;;;;7.93;6.33;;;;;;;;;;5022355;28;20263;-73
2023/04/06 03:10:34;;;;;;;7.13;5.77;;;;;;;;;;5024286;28;20244;-73
2023/04/06 03:13:01;;;;;;;7.10;5.97;;;;;;;;;;5020199;28;20242;-73
2023/04/06 03:15:29;;;;;;;8.40;6.10;;;;;;;;;;5022259;28;20312;-73
2023/04/06 03:17:56;;;;;;;7.77;6.40;;;;;;;;;;5021840;28;20237;-73
2023/04/06 03:20:23;;;;;;;7.20;6.00;;;;;;;;;;5017462;28;20301;-73
2023/04/06 03:22:52;;;;;;;7.43;6.20;;;;;;;;;;5014066;28;20244;-73
2023/04/06 03:25:19;;;;;;;6.63;5.83;;;;;;;;;;5023412;28;20306;-73
2023/04/06 03:27:46;;;;;;;8.80;6.03;;;;;;;;;;5027683;28;20267;-73
2023/04/06 03:30:13;;;;;;;6.50;5.60;;;;;;;;;;5013926;28;20240;-73
2023/04/06 03:32:41;;;;;;;8.50;5.87;;;;;;;;;;5017459;28;20270;-73
2023/04/06 03:35:08;;;;;;;6.60;5.20;;;;;;;;;;5027144;28;20243;-73
2023/04/06 03:37:35;;;;;;;6.00;5.40;;;;;;;;;;5021248;28;20247;-73
2023/04/06 03:40:04;;;;;;;7.77;5.87;;;;;;;;;;5023980;28;20267;-73
2023/04/06 03:42:32;;;;;;;9.97;6.03;;;;;;;;;;5023435;28;20204;-74
2023/04/06 03:44:59;;;;;;;6.80;5.40;;;;;;;;;;5023300;28;20227;-73
2023/04/06 03:47:27;;;;;;;9.20;6.47;;;;;;;;;;5025923;28;20271;-73
2023/04/06 03:49:55;;;;;;;6.50;5.50;;;;;;;;;;5022532;28;20204;-73
2023/04/06 03:52:23;;;;;;;6.83;6.13;;;;;;;;;;5020022;28;20262;-73
2023/04/06 03:54:50;;;;;;;7.53;6.00;;;;;;;;;;5020573;28;20218;-73
2023/04/06 03:57:19;;;;;;;7.30;6.20;;;;;;;;;;5018739;28;20243;-73
2023/04/06 03:59:46;;;;;;;7.70;6.10;;;;;;;;;;5017692;28;20244;-73
2023/04/06 04:02:13;;;;;;;6.33;5.63;;;;;;;;;;5025539;28;20252;-73
2023/04/06 04:04:41;;;;;;;6.17;5.57;;;;;;;;;;5018454;28;20251;-73
2023/04/06 04:07:08;;;;;;;6.00;5.40;;;;;;;;;;5022358;28;20240;-73
2023/04/06 04:09:35;;;;;;;7.33;5.63;;;;;;;;;;5022195;28;20236;-73
2023/04/06 04:12:02;;;;;;;8.90;5.50;;;;;;;;;;5023582;28;20248;-73
2023/04/06 04:14:31;;;;;;;9.90;6.30;;;;;;;;;;5019875;28;20267;-73
2023/04/06 04:16:58;;;;;;;6.70;5.97;;;;;;;;;;5019869;28;20252;-73
2023/04/06 04:19:25;;;;;;;8.03;6.23;;;;;;;;;;5023675;28;20236;-73
2023/04/06 04:21:52;;;;;;;8.73;6.73;;;;;;;;;;5019849;28;20254;-73
2023/04/06 04:24:20;;;;;;;7.87;6.00;;;;;;;;;;5022332;28;20254;-73
2023/04/06 04:26:47;;;;;;;7.57;6.10;;;;;;;;;;5020049;28;20228;-73
2023/04/06 04:29:15;;;;;;;7.57;5.70;;;;;;;;;;5022348;28;20276;-73
2023/04/06 04:31:43;;;;;;;7.90;6.43;;;;;;;;;;5018511;28;20263;-73
2023/04/06 04:34:10;;;;;;;6.73;5.73;;;;;;;;;;5014784;28;20271;-73
2023/04/06 04:36:38;;;;;;;7.13;5.90;;;;;;;;;;5016106;28;20200;-73
2023/04/06 04:39:05;;;;;;;6.27;5.67;;;;;;;;;;5015737;28;20236;-72
2023/04/06 04:41:32;;;;;;;6.57;5.80;;;;;;;;;;5026765;28;20235;-73
2023/04/06 04:43:59;;;;;;;7.07;5.77;;;;;;;;;;5022618;28;20239;-73
2023/04/06 04:46:26;;;;;;;7.00;5.80;;;;;;;;;;5021240;28;20244;-73
2023/04/06 04:48:55;;;;;;;7.97;6.03;;;;;;;;;;5017897;28;20217;-73
2023/04/06 04:51:24;;;;;;;7.20;6.20;;;;;;;;;;5022173;28;20259;-73
2023/04/06 04:53:51;;;;;;;8.20;6.77;;;;;;;;;;5023328;28;20224;-73
2023/04/06 04:56:18;;;;;;;8.00;6.27;;;;;;;;;;5018616;28;20248;-73
2023/04/06 04:58:45;;;;;;;7.67;6.70;;;;;;;;;;5020284;28;20236;-73
2023/04/06 05:01:13;;;;;;;6.87;6.17;;;;;;;;;;5020138;28;20268;-73
2023/04/06 05:03:40;;;;;;;7.70;6.20;;;;;;;;;;5020276;28;20204;-73
2023/04/06 05:06:08;;;;;;;7.50;6.47;;;;;;;;;;5017603;28;20248;-73
2023/04/06 05:08:36;;;;;;;7.13;6.10;;;;;;;;;;5015290;28;20274;-73
2023/04/06 05:11:04;;;;;;;8.33;6.47;;;;;;;;;;5017928;28;20240;-73
2023/04/06 05:13:31;;;;;;;9.97;6.27;;;;;;;;;;5019367;28;20239;-73
2023/04/06 05:15:58;;;;;;;6.17;5.57;;;;;;;;;;5022630;28;20216;-74
2023/04/06 05:18:26;;;;;;;7.63;5.97;;;;;;;;;;5017038;28;20250;-73
2023/04/06 05:20:53;;;;;;;6.13;5.53;;;;;;;;;;5022067;28;20236;-73
2023/04/06 05:23:21;;;;;;;7.83;5.70;;;;;;;;;;5016709;28;20205;-73
2023/04/06 05:25:49;;;;;;;8.30;6.63;;;;;;;;;;5020398;28;20242;-73
2023/04/06 05:28:16;;;;;;;18.47;10.87;;;;;;;;;;5019404;28;20272;-73
2023/04/06 05:30:44;;;;;;;45.13;23.43;;;;;;;;;;5020970;28;20205;-74
2023/04/06 05:33:11;;;;;;;41.10;22.17;;;;;;;;;;5021137;28;20232;-73
2023/04/06 05:35:38;;;;;;;36.10;19.47;;;;;;;;;;5017375;28;20212;-74
2023/04/06 05:38:09;;;;;;;23.43;15.10;;;;;;;;;;5016735;28;20259;-73
2023/04/06 05:40:40;;;;;;;18.20;12.50;;;;;;;;;;5018705;28;20263;-73
2023/04/06 05:43:07;;;;;;;14.77;10.17;;;;;;;;;;5019038;28;20197;-73
2023/04/06 05:45:35;;;;;;;11.30;8.23;;;;;;;;;;5021505;28;20216;-73
2023/04/06 05:48:02;;;;;;;11.23;8.37;;;;;;;;;;5015602;28;20212;-73
2023/04/06 05:50:30;;;;;;;10.13;7.47;;;;;;;;;;5025433;28;20204;-74
2023/04/06 05:52:57;;;;;;;10.43;7.00;;;;;;;;;;5019999;28;20303;-74
2023/04/06 05:55:24;;;;;;;7.90;7.10;;;;;;;;;;5018231;28;20211;-73
2023/04/06 05:57:53;;;;;;;8.03;6.57;;;;;;;;;;5024347;28;20208;-73
2023/04/06 06:00:20;;;;;;;8.03;6.37;;;;;;;;;;5017112;28;20236;-74
2023/04/06 06:02:47;;;;;;;8.77;6.17;;;;;;;;;;5019253;28;20240;-73
2023/04/06 06:05:15;;;;;;;8.33;6.10;;;;;;;;;;5019699;28;20274;-73
2023/04/06 06:07:42;;;;;;;9.97;8.00;;;;;;;;;;5024295;28;20235;-74
2023/04/06 06:10:10;;;;;;;7.63;6.83;;;;;;;;;;5017232;28;20231;-74
2023/04/06 06:12:37;;;;;;;6.90;5.67;;;;;;;;;;5020776;28;20240;-73
2023/04/06 06:15:06;;;;;;;6.47;5.80;;;;;;;;;;5016916;28;20260;-74
2023/04/06 06:17:33;;;;;;;7.60;6.90;;;;;;;;;;5022276;28;20248;-73
2023/04/06 06:20:01;;;;;;;9.60;8.73;;;;;;;;;;5019013;28;20203;-74
2023/04/06 06:22:28;;;;;;;9.83;8.83;;;;;;;;;;5019450;28;20228;-73
2023/04/06 06:24:55;;;;;;;18.97;17.27;;;;;;;;;;5022800;28;20219;-74
2023/04/06 06:27:23;;;;;;;23.60;21.30;;;;;;;;;;5015594;28;20245;-74
2023/04/06 06:29:51;;;;;;;14.67;13.27;;;;;;;;;;5019087;28;20240;-73
2023/04/06 06:32:20;;;;;;;12.87;11.57;;;;;;;;;;5017011;28;20240;-74
2023/04/06 06:34:47;;;;;;;9.00;8.10;;;;;;;;;;5022929;28;20291;-74
2023/04/06 06:37:14;;;;;;;9.17;7.03;;;;;;;;;;5021446;28;20208;-74
2023/04/06 06:39:41;;;;;;;7.00;6.30;;;;;;;;;;5024343;28;20287;-73
2023/04/06 06:42:09;;;;;;;10.30;6.80;;;;;;;;;;5019271;28;20254;-73
2023/04/06 06:44:36;;;;;;;7.97;7.00;;;;;;;;;;5021576;28;20242;-73
2023/04/06 06:47:03;;;;;;;7.53;6.50;;;;;;;;;;5019130;28;20208;-73
2023/04/06 06:49:32;;;;;;;7.17;6.43;;;;;;;;;;5016134;28;20240;-73
2023/04/06 06:51:59;;;;;;;7.40;6.70;;;;;;;;;;5017602;28;20256;-73
2023/04/06 06:54:26;;;;;;;7.47;6.77;;;;;;;;;;5010879;28;20288;-73
2023/04/06 06:56:54;;;;;;;8.13;6.50;;;;;;;;;;5017044;28;20243;-73
2023/04/06 06:59:21;;;;;;;14.97;9.70;;;;;;;;;;5020651;28;20279;-73
2023/04/06 07:01:49;;;;;;;15.93;10.63;;;;;;;;;;5026896;28;20208;-73
2023/04/06 07:04:16;;;;;;;13.63;9.40;;;;;;;;;;5021653;28;20354;-73
2023/04/06 07:06:45;;;;;;;15.23;10.13;;;;;;;;;;5022405;28;20247;-73
2023/04/06 07:09:12;;;;;;;14.53;9.77;;;;;;;;;;5019368;28;20247;-73
2023/04/06 07:11:39;;;;;;;12.33;8.40;;;;;;;;;;5026768;28;20246;-73
2023/04/06 07:14:06;;;;;;;9.47;7.83;;;;;;;;;;5025154;28;20271;-73
2023/04/06 07:16:34;;;;;;;9.13;6.77;;;;;;;;;;5022554;28;20218;-73
2023/04/06 07:19:01;;;;;;;8.53;6.27;;;;;;;;;;5018482;28;20274;-73
2023/04/06 07:21:28;;;;;;;9.57;6.80;;;;;;;;;;5014320;28;20213;-73
2023/04/06 07:23:57;;;;;;;8.37;6.60;;;;;;;;;;5020823;28;20232;-73
2023/04/06 07:26:24;;;;;;;9.20;6.97;;;;;;;;;;5020601;28;20247;-73
2023/04/06 07:28:51;;;;;;;7.87;6.23;;;;;;;;;;5024136;28;20316;-73
2023/04/06 07:31:18;;;;;;;8.83;6.73;;;;;;;;;;5023397;28;20254;-73
2023/04/06 07:33:46;;;;;;;9.77;6.33;;;;;;;;;;5020305;28;20284;-74
2023/04/06 07:36:14;;;;;;;8.03;6.00;;;;;;;;;;5028880;28;20236;-74
2023/04/06 07:38:41;;;;;;;8.90;6.27;;;;;;;;;;5019018;28;20228;-73
2023/04/06 07:41:10;;;;;;;8.60;5.90;;;;;;;;;;5028750;28;20247;-73
2023/04/06 07:43:38;;;;;;;8.97;6.57;;;;;;;;;;5022540;28;20216;-74
2023/04/06 07:46:05;;;;;;;10.77;7.00;;;;;;;;;;5018606;28;20204;-74
2023/04/06 07:48:32;;;;;;;8.60;6.43;;;;;;;;;;5024910;28;20230;-73
2023/04/06 07:51:03;;;;;;;10.77;6.27;;;;;;;;;;5020236;28;20243;-74
2023/04/06 07:53:30;;;;;;;9.53;6.67;;;;;;;;;;5017433;28;20297;-73
2023/04/06 07:55:57;;;;;;;10.27;7.10;;;;;;;;;;5023791;28;20233;-73
2023/04/06 07:58:26;;;;;;;9.10;6.70;;;;;;;;;;5026060;28;20296;-73
2023/04/06 08:00:54;;;;;;;12.03;6.80;;;;;;;;;;5013534;28;20290;-73
2023/04/06 08:03:25;;;;;;;9.40;7.13;;;;;;;;;;5013619;28;20239;-74
2023/04/06 08:05:52;;;;;;;8.93;7.03;;;;;;;;;;5020610;28;20232;-74
2023/04/06 08:08:21;;;;;;;8.43;7.07;;;;;;;;;;5020503;28;20207;-74
2023/04/06 08:10:48;;;;;;;10.30;6.50;;;;;;;;;;5024953;28;20219;-73
2023/04/06 08:13:15;;;;;;;9.87;7.63;;;;;;;;;;5024261;28;20212;-74
2023/04/06 08:15:44;;;;;;;11.43;6.90;;;;;;;;;;5020017;28;20234;-74
2023/04/06 08:18:11;;;;;;;10.40;6.77;;;;;;;;;;5018157;28;20224;-73
2023/04/06 08:20:38;;;;;;;9.93;7.63;;;;;;;;;;5013148;28;20217;-74
2023/04/06 08:23:06;;;;;;;9.60;7.30;;;;;;;;;;5023384;28;20208;-74
2023/04/06 08:25:33;;;;;;;9.93;6.73;;;;;;;;;;5022470;28;20208;-74
2023/04/06 08:28:00;;;;;;;9.47;6.77;;;;;;;;;;5019801;28;20282;-73
2023/04/06 08:30:28;;;;;;;10.87;7.33;;;;;;;;;;5020203;28;20251;-73
2023/04/06 08:32:56;;;;;;;10.40;7.10;;;;;;;;;;5019478;28;20251;-73
2023/04/06 08:35:23;;;;;;;8.83;6.83;;;;;;;;;;5018458;28;20268;-73
2023/04/06 08:37:50;;;;;;;9.07;7.00;;;;;;;;;;5022833;28;20314;-73
2023/04/06 08:40:18;;;;;;;10.17;6.87;;;;;;;;;;5023238;28;20236;-73
2023/04/06 08:42:46;;;;;;;10.93;6.17;;;;;;;;;;5022702;28;20196;-73
2023/04/06 08:45:15;;;;;;;7.37;6.23;;;;;;;;;;5020834;28;20246;-73
2023/04/06 08:47:42;;;;;;;7.33;6.13;;;;;;;;;;5019080;28;20302;-72
2023/04/06 08:50:12;;;;;;;9.57;6.37;;;;;;;;;;5021539;28;20259;-72
2023/04/06 08:52:39;;;;;;;8.03;6.13;;;;;;;;;;5021900;28;20212;-74
2023/04/06 08:55:07;;;;;;;11.17;6.50;;;;;;;;;;5026557;28;20228;-73
2023/04/06 08:57:35;;;;;;;7.00;5.90;;;;;;;;;;5022230;28;20245;-73
2023/04/06 09:00:02;;;;;;;9.03;6.67;;;;;;;;;;5020235;28;20240;-73
2023/04/06 09:02:30;;;;;;;9.07;6.80;;;;;;;;;;5018819;28;20291;-72
2023/04/06 09:04:58;;;;;;;8.67;6.50;;;;;;;;;;5018677;28;20212;-73
2023/04/06 09:07:27;;;;;;;10.20;6.70;;;;;;;;;;5019340;28;20235;-73
2023/04/06 09:09:54;;;;;;;7.37;6.10;;;;;;;;;;5020895;28;20274;-73
2023/04/06 09:12:24;;;;;;;8.87;6.67;;;;;;;;;;5020099;28;20235;-71
2023/04/06 09:14:51;;;;;;;8.00;6.33;;;;;;;;;;5022643;28;20232;-72
2023/04/06 09:17:22;;;;;;;10.87;6.40;;;;;;;;;;5017057;28;20221;-72
2023/04/06 09:19:50;;;;;;;8.47;6.10;;;;;;;;;;5023506;28;20259;-72
2023/04/06 09:22:17;;;;;;;8.70;6.23;;;;;;;;;;5018473;28;20215;-72
2023/04/06 09:24:46;;;;;;;9.40;6.40;;;;;;;;;;5014991;28;20220;-73
2023/04/06 09:27:14;;;;;;;8.53;6.00;;;;;;;;;;5017974;28;20201;-73
2023/04/06 09:29:41;;;;;;;8.30;6.73;;;;;;;;;;5019268;28;20251;-73
2023/04/06 09:32:10;;;;;;;9.83;6.97;;;;;;;;;;5023432;28;20217;-72
2023/04/06 09:34:38;;;;;;;10.70;7.10;;;;;;;;;;5018985;28;20224;-73
2023/04/06 09:37:16;;;;;;;9.37;6.73;;;;;;;;;;5018215;28;20287;-72
2023/04/06 09:39:43;;;;;;;11.87;7.70;;;;;;;;;;5019813;28;20240;-72
2023/04/06 09:42:13;;;;;;;9.20;7.07;;;;;;;;;;5015833;28;20295;-72
2023/04/06 09:44:40;;;;;;;10.53;8.47;;;;;;;;;;5017313;28;20240;-72
2023/04/06 09:47:08;;;;;;;13.73;10.57;;;;;;;;;;5022345;28;20288;-72
2023/04/06 09:49:36;;;;;;;10.53;8.30;;;;;;;;;;5019647;28;20290;-72
2023/04/06 09:52:03;;;;;;;10.57;7.10;;;;;;;;;;5023369;28;20204;-71
2023/04/06 09:54:32;;;;;;;8.87;6.50;;;;;;;;;;5013940;28;20224;-71
2023/04/06 09:57:02;;;;;;;9.87;6.90;;;;;;;;;;5017432;28;20247;-71
2023/04/06 09:59:34;;;;;;;11.33;6.33;;;;;;;;;;5019453;28;20209;-71
2023/04/06 10:02:02;;;;;;;8.73;6.97;;;;;;;;;;5018572;28;20232;-72
2023/04/06 10:04:33;;;;;;;8.90;6.30;;;;;;;;;;5021772;28;20239;-72
2023/04/06 10:07:01;;;;;;;9.57;6.50;;;;;;;;;;5011309;28;20252;-72
2023/04/06 10:09:35;;;;;;;7.33;6.50;;;;;;;;;;5011980;28;20243;-72
2023/04/06 10:12:03;;;;;;;8.00;6.30;;;;;;;;;;5022780;28;20254;-72
2023/04/06 10:14:32;;;;;;;8.10;6.27;;;;;;;;;;5020589;28;20267;-72
2023/04/06 10:16:59;;;;;;;8.27;6.17;;;;;;;;;;5017869;28;20304;-72
2023/04/06 10:19:29;;;;;;;7.20;6.17;;;;;;;;;;5016663;28;20243;-73
2023/04/06 10:21:58;;;;;;;7.00;6.00;;;;;;;;;;5021291;28;20230;-71
2023/04/06 10:24:26;;;;;;;9.37;6.60;;;;;;;;;;5020009;28;20240;-72
2023/04/06 10:27:00;;;;;;;9.07;6.47;;;;;;;;;;5021992;28;20240;-71
2023/04/06 10:29:27;;;;;;;9.43;6.77;;;;;;;;;;5014292;28;20218;-72
2023/04/06 10:31:56;;;;;;;9.10;5.90;;;;;;;;;;5018139;28;20208;-71
2023/04/06 10:34:23;;;;;;;8.50;6.50;;;;;;;;;;5021587;28;20236;-71
2023/04/06 10:36:50;;;;;;;10.57;6.30;;;;;;;;;;5022572;28;20247;-71
2023/04/06 10:39:27;;;;;;;8.57;6.17;;;;;;;;;;5025149;28;20236;-72
2023/04/06 10:41:54;;;;;;;8.57;6.50;;;;;;;;;;5027069;28;20231;-72
2023/04/06 10:44:22;;;;;;;9.40;6.47;;;;;;;;;;5025586;28;20211;-71
2023/04/06 10:47:00;;;;;;;9.30;6.50;;;;;;;;;;5025107;28;20232;-72
2023/04/06 10:49:27;;;;;;;9.13;6.87;;;;;;;;;;5023749;28;20211;-72
2023/04/06 10:51:55;;;;;;;8.80;6.97;;;;;;;;;;5019997;28;20243;-71
2023/04/06 10:54:23;;;;;;;11.33;6.90;;;;;;;;;;5020806;28;20259;-71
2023/04/06 10:56:50;;;;;;;8.37;6.50;;;;;;;;;;5017900;28;20216;-71
2023/04/06 10:59:21;;;;;;;11.53;7.00;;;;;;;;;;5026060;28;20265;-71
2023/04/06 11:01:48;;;;;;;11.20;6.77;;;;;;;;;;5017463;28;20299;-71
2023/04/06 11:04:19;;;;;;;11.97;8.57;;;;;;;;;;5021820;28;20239;-71
2023/04/06 11:06:48;;;;;;;9.20;7.00;;;;;;;;;;5018154;28;20204;-71
2023/04/06 11:09:24;;;;;;;8.23;6.60;;;;;;;;;;5021371;28;20212;-71
2023/04/06 11:11:52;;;;;;;10.53;7.20;;;;;;;;;;5027957;28;20212;-70
2023/04/06 11:14:19;;;;;;;11.10;7.87;;;;;;;;;;5022244;28;20216;-71
2023/04/06 11:16:48;;;;;;;12.07;8.43;;;;;;;;;;5024344;28;20290;-71
2023/04/06 11:19:15;;;;;;;11.73;8.70;;;;;;;;;;5021331;28;20208;-71
2023/04/06 11:21:47;;;;;;;9.57;7.10;;;;;;;;;;5020989;28;20240;-72
2023/04/06 11:24:15;;;;;;;8.23;6.77;;;;;;;;;;5021442;28;20205;-71
2023/04/06 11:26:43;;;;;;;11.83;6.70;;;;;;;;;;5019868;28;20215;-71
2023/04/06 11:29:11;;;;;;;12.67;6.77;;;;;;;;;;5020461;28;20331;-71
2023/04/06 11:31:41;;;;;;;10.87;6.67;;;;;;;;;;5021760;28;20257;-71
2023/04/06 11:34:17;;;;;;;10.10;7.33;;;;;;;;;;5019923;28;20239;-71
2023/04/06 11:36:47;;;;;;;8.83;6.77;;;;;;;;;;5019009;28;20239;-71
2023/04/06 11:39:14;;;;;;;11.37;6.83;;;;;;;;;;5017711;28;20239;-71
2023/04/06 11:41:41;;;;;;;9.53;6.73;;;;;;;;;;5022009;28;20216;-71
2023/04/06 11:44:09;;;;;;;10.03;7.00;;;;;;;;;;5024352;28;20240;-71
2023/04/06 11:46:36;;;;;;;11.97;6.97;;;;;;;;;;5025191;28;20239;-71
2023/04/06 11:49:04;;;;;;;9.63;6.77;;;;;;;;;;5024693;28;20248;-71
2023/04/06 11:51:31;;;;;;;7.87;6.67;;;;;;;;;;5019505;28;20248;-71
2023/04/06 11:54:00;;;;;;;7.13;6.23;;;;;;;;;;5017928;28;20221;-70
2023/04/06 11:56:28;;;;;;;11.23;7.13;;;;;;;;;;5025312;28;20239;-70
2023/04/06 11:58:56;;;;;;;9.67;6.73;;;;;;;;;;5017952;28;20258;-70
2023/04/06 12:01:23;;;;;;;12.97;6.97;;;;;;;;;;5022257;28;20240;-71
2023/04/06 12:03:51;;;;;;;7.50;6.17;;;;;;;;;;5021122;28;20244;-71
2023/04/06 12:06:18;;;;;;;7.73;6.17;;;;;;;;;;5024478;28;20229;-71
2023/04/06 12:08:45;;;;;;;10.87;6.70;;;;;;;;;;5018354;28;20283;-72
2023/04/06 12:11:14;;;;;;;8.33;6.80;;;;;;;;;;5024739;28;20215;-71
2023/04/06 12:13:41;;;;;;;7.93;6.90;;;;;;;;;;5017130;28;20209;-71
2023/04/06 12:16:08;;;;;;;8.47;6.60;;;;;;;;;;5018708;28;20255;-71
2023/04/06 12:18:36;;;;;;;9.70;6.70;;;;;;;;;;5015330;28;20235;-72
2023/04/06 12:21:03;;;;;;;9.87;6.60;;;;;;;;;;5021634;28;20317;-71
2023/04/06 12:23:30;;;;;;;7.43;6.23;;;;;;;;;;5028850;28;20197;-71
2023/04/06 12:25:57;;;;;;;6.50;5.73;;;;;;;;;;5024577;28;20225;-72
2023/04/06 12:28:26;;;;;;;6.87;5.63;;;;;;;;;;5019341;28;20268;-70
2023/04/06 12:30:54;;;;;;;7.57;5.43;;;;;;;;;;5019027;28;20212;-71
2023/04/06 12:33:22;;;;;;;7.50;5.67;;;;;;;;;;5018117;28;20274;-71
2023/04/06 12:35:49;;;;;;;7.37;6.00;;;;;;;;;;5016866;28;20237;-71
2023/04/06 12:38:16;;;;;;;7.83;6.23;;;;;;;;;;5020134;28;20216;-71
2023/04/06 12:40:44;;;;;;;8.93;6.30;;;;;;;;;;5017391;28;20208;-71
2023/04/06 12:43:12;;;;;;;7.63;5.00;;;;;;;;;;5020003;28;20259;-70
2023/04/06 12:45:41;;;;;;;7.60;5.20;;;;;;;;;;5023014;28;20205;-71
2023/04/06 12:48:09;;;;;;;8.70;5.43;;;;;;;;;;5017077;28;20259;-72
2023/04/06 12:50:36;;;;;;;7.10;5.70;;;;;;;;;;5020914;28;20267;-72
2023/04/06 12:53:03;;;;;;;5.77;5.23;;;;;;;;;;5021276;28;20244;-71
2023/04/06 12:55:33;;;;;;;7.63;6.80;;;;;;;;;;5023431;28;20259;-71
2023/04/06 12:58:01;;;;;;;7.33;5.93;;;;;;;;;;5022407;28;20204;-70
2023/04/06 13:00:28;;;;;;;8.30;6.73;;;;;;;;;;5014517;28;20240;-71
2023/04/06 13:02:57;;;;;;;7.00;6.30;;;;;;;;;;5022247;28;20287;-70
2023/04/06 13:05:24;;;;;;;7.63;6.63;;;;;;;;;;5020136;28;20284;-71
2023/04/06 13:07:51;;;;;;;8.10;6.63;;;;;;;;;;5016829;28;20209;-71
2023/04/06 13:10:18;;;;;;;9.37;7.20;;;;;;;;;;5022747;28;20300;-72
2023/04/06 13:12:46;;;;;;;8.57;7.07;;;;;;;;;;5018189;28;20271;-71
2023/04/06 13:15:13;;;;;;;8.20;7.00;;;;;;;;;;5019495;28;20250;-72
2023/04/06 13:17:40;;;;;;;8.63;7.03;;;;;;;;;;5024638;28;20247;-72
2023/04/06 13:20:09;;;;;;;7.63;6.83;;;;;;;;;;5014721;28;20256;-72
2023/04/06 13:22:37;;;;;;;7.43;6.23;;;;;;;;;;5020065;28;20270;-72
2023/04/06 13:25:04;;;;;;;7.00;6.00;;;;;;;;;;5016232;28;20207;-72
2023/04/06 13:27:33;;;;;;;6.80;5.83;;;;;;;;;;5022007;28;20239;-72
2023/04/06 13:30:01;;;;;;;6.33;5.20;;;;;;;;;;5020413;28;20221;-72
2023/04/06 13:32:28;;;;;;;6.10;5.50;;;;;;;;;;5017935;28;20269;-71
2023/04/06 13:34:56;;;;;;;4.97;4.57;;;;;;;;;;5020975;28;20208;-72
2023/04/06 13:37:25;;;;;;;4.83;4.40;;;;;;;;;;5018470;28;20315;-72
2023/04/06 13:39:52;;;;;;;4.70;4.30;;;;;;;;;;5022510;28;20232;-71
2023/04/06 13:42:19;;;;;;;5.50;5.00;;;;;;;;;;5020460;28;20213;-71
2023/04/06 13:44:47;;;;;;;5.17;4.53;;;;;;;;;;5020650;28;20307;-72
2023/04/06 13:47:15;;;;;;;4.57;4.07;;;;;;;;;;5020334;28;20211;-72
2023/04/06 13:49:42;;;;;;;4.90;4.20;;;;;;;;;;5022484;28;20276;-71
2023/04/06 13:52:10;;;;;;;5.03;4.60;;;;;;;;;;5011770;28;20262;-72
2023/04/06 13:54:39;;;;;;;8.97;7.03;;;;;;;;;;5011374;28;20205;-72
2023/04/06 13:57:07;;;;;;;8.07;7.17;;;;;;;;;;5017917;28;20232;-72
2023/04/06 13:59:35;;;;;;;8.63;7.27;;;;;;;;;;5020032;28;20265;-73
2023/04/06 14:02:02;;;;;;;5.80;5.20;;;;;;;;;;5023813;28;20203;-72
2023/04/06 14:04:29;;;;;;;5.10;4.60;;;;;;;;;;5022939;28;20212;-73
2023/04/06 14:06:56;;;;;;;4.50;4.10;;;;;;;;;;5026532;28;20271;-72
2023/04/06 14:09:23;;;;;;;5.27;4.67;;;;;;;;;;5027403;28;20200;-72
2023/04/06 14:11:52;;;;;;;5.30;4.77;;;;;;;;;;5023584;28;20219;-71
2023/04/06 14:14:19;;;;;;;4.50;4.10;;;;;;;;;;5020111;28;20216;-71
2023/04/06 14:16:47;;;;;;;4.70;4.30;;;;;;;;;;5025576;28;20224;-71
2023/04/06 14:19:15;;;;;;;5.00;4.50;;;;;;;;;;5024815;28;20262;-71
2023/04/06 14:21:43;;;;;;;4.37;3.97;;;;;;;;;;5021078;28;20204;-71
2023/04/06 14:24:10;;;;;;;4.80;4.00;;;;;;;;;;5024083;28;20213;-71
2023/04/06 14:26:38;;;;;;;5.07;4.10;;;;;;;;;;5019189;28;20216;-71
2023/04/06 14:29:06;;;;;;;5.70;4.37;;;;;;;;;;5023931;28;20240;-71
2023/04/06 14:31:34;;;;;;;4.23;3.80;;;;;;;;;;5018075;28;20213;-71
2023/04/06 14:34:02;;;;;;;4.93;4.43;;;;;;;;;;5025481;28;20204;-71
2023/04/06 14:36:35;;;;;;;4.33;3.93;;;;;;;;;;5020974;28;20219;-70
2023/04/06 14:39:04;;;;;;;4.07;3.67;;;;;;;;;;5024557;28;20214;-70
2023/04/06 14:41:31;;;;;;;3.77;3.47;;;;;;;;;;5019633;28;20219;-72
2023/04/06 14:43:58;;;;;;;3.67;3.37;;;;;;;;;;5024946;28;20205;-70